Time;durP1;ratioP1;P1;durP2;ratioP2;P2;SDS_P1;SDS_P2;PMS_P1;PMS_P2;Temp;Humidity;BMP_temperature;BMP_pressure;BME280_temperature;BME280_humidity;BME280_pressure;Samples;Min_cycle;Max_cycle;Signal;HPM_P1;HPM_P2
2021/05/18 00:01:40;;;;;;;2.08;0.65;;;10.00;99.90;;;;;;5134636;28;20206;-85
2021/05/18 00:04:06;;;;;;;0.60;0.60;;;10.00;99.90;;;;;;5135905;28;20250;-81
2021/05/18 00:06:32;;;;;;;0.77;0.77;;;10.00;99.90;;;;;;5135763;28;20189;-85
2021/05/18 00:11:43;;;;;;;1.38;1.27;;;10.00;99.90;;;;;;5135898;28;20223;-84
2021/05/18 00:14:11;;;;;;;0.80;0.80;;;10.00;99.90;;;;;;5135796;28;20228;-83
2021/05/18 00:16:38;;;;;;;1.02;0.70;;;10.00;99.90;;;;;;5134559;28;20204;-81
2021/05/18 00:19:05;;;;;;;0.75;0.70;;;10.00;99.90;;;;;;5134991;28;20226;-83
2021/05/18 00:21:32;;;;;;;1.05;0.90;;;10.00;99.90;;;;;;5135274;28;20218;-85
2021/05/18 00:23:58;;;;;;;0.85;0.60;;;10.00;99.90;;;;;;5136233;28;20296;-85
2021/05/18 00:26:25;;;;;;;0.88;0.80;;;10.00;99.90;;;;;;5136394;28;20206;-87
2021/05/18 00:28:51;;;;;;;1.38;0.90;;;10.10;99.90;;;;;;5139473;28;20286;-85
2021/05/18 00:31:17;;;;;;;0.82;0.82;;;10.10;99.90;;;;;;5140077;28;20205;-83
2021/05/18 00:33:45;;;;;;;0.80;0.80;;;10.10;99.90;;;;;;5140206;28;20208;-86
2021/05/18 00:36:13;;;;;;;0.85;0.85;;;10.10;99.90;;;;;;5139887;28;20190;-82
2021/05/18 00:38:39;;;;;;;0.70;0.70;;;10.10;99.90;;;;;;5138699;28;20230;-82
2021/05/18 00:41:07;;;;;;;1.20;1.10;;;10.10;99.90;;;;;;5139112;28;20209;-86
2021/05/18 00:43:34;;;;;;;0.88;0.60;;;10.10;99.90;;;;;;5139731;28;20219;-84
2021/05/18 00:46:00;;;;;;;1.00;1.00;;;10.10;99.90;;;;;;5138678;28;20200;-83
2021/05/18 00:48:27;;;;;;;0.82;0.82;;;10.20;99.90;;;;;;5137454;28;20208;-84
2021/05/18 00:50:58;;;;;;;1.20;1.20;;;10.20;99.90;;;;;;5137491;28;20628;-82
2021/05/18 00:53:25;;;;;;;0.98;0.70;;;10.10;99.90;;;;;;5138942;28;20233;-83
2021/05/18 00:55:54;;;;;;;0.80;0.80;;;10.10;99.90;;;;;;5139643;28;20200;-84
2021/05/18 00:58:27;;;;;;;1.05;1.05;;;10.10;99.90;;;;;;5140005;28;20189;-84
2021/05/18 01:00:54;;;;;;;0.80;0.80;;;10.10;99.90;;;;;;5140345;28;20169;-84
2021/05/18 01:03:21;;;;;;;0.80;0.80;;;10.10;99.90;;;;;;5139337;28;20214;-83
2021/05/18 01:08:33;;;;;;;2.42;1.17;;;10.10;99.90;;;;;;5140120;28;20198;-83
2021/05/18 01:11:00;;;;;;;1.33;1.23;;;10.10;99.90;;;;;;5140138;28;20204;-83
2021/05/18 01:13:28;;;;;;;2.17;0.98;;;10.10;99.90;;;;;;5139754;28;20212;-84
2021/05/18 01:15:55;;;;;;;1.60;0.93;;;10.20;99.90;;;;;;5139748;28;20217;-84
2021/05/18 01:18:21;;;;;;;1.25;0.90;;;10.20;99.90;;;;;;5139859;28;20205;-84
2021/05/18 01:20:56;;;;;;;1.02;0.70;;;10.20;99.90;;;;;;5140121;28;20204;-84
2021/05/18 01:23:22;;;;;;;1.00;1.00;;;10.30;99.90;;;;;;5139704;28;20226;-84
2021/05/18 01:25:49;;;;;;;1.20;0.70;;;10.30;99.90;;;;;;5139891;28;20203;-83
2021/05/18 01:28:15;;;;;;;1.33;0.83;;;10.30;99.90;;;;;;5139671;28;20294;-83
2021/05/18 01:30:42;;;;;;;1.77;1.60;;;10.20;99.90;;;;;;5139782;28;20436;-84
2021/05/18 01:33:08;;;;;;;0.73;0.60;;;10.20;99.90;;;;;;5139212;28;20196;-83
2021/05/18 01:35:36;;;;;;;0.88;0.88;;;10.20;99.90;;;;;;5139794;28;20190;-83
2021/05/18 01:38:07;;;;;;;0.90;0.90;;;10.10;99.90;;;;;;5139243;28;20204;-83
2021/05/18 01:43:17;;;;;;;0.70;0.70;;;10.00;99.90;;;;;;5128542;28;20182;-84
2021/05/18 01:45:44;;;;;;;1.65;0.70;;;10.00;99.90;;;;;;5139865;28;20223;-84
2021/05/18 01:48:14;;;;;;;1.05;0.98;;;9.80;99.90;;;;;;5139517;28;20189;-83
2021/05/18 01:50:45;;;;;;;0.70;0.70;;;9.80;99.90;;;;;;5132375;28;20216;-84
2021/05/18 01:53:13;;;;;;;0.70;0.70;;;9.90;99.90;;;;;;5139028;28;20189;-83
2021/05/18 01:55:42;;;;;;;0.93;0.90;;;9.90;99.90;;;;;;5139346;28;20197;-84
2021/05/18 01:58:09;;;;;;;0.77;0.70;;;10.00;99.90;;;;;;5138760;28;20197;-84
2021/05/18 02:00:38;;;;;;;5.10;3.10;;;10.00;99.90;;;;;;5138427;28;20239;-84
2021/05/18 02:03:04;;;;;;;0.60;0.60;;;10.00;99.90;;;;;;5137739;28;20245;-84
2021/05/18 02:05:36;;;;;;;2.20;1.30;;;10.00;99.90;;;;;;5138951;28;20206;-84
2021/05/18 02:08:06;;;;;;;1.45;1.13;;;10.00;99.90;;;;;;5138652;28;20203;-84
2021/05/18 02:10:34;;;;;;;1.38;0.88;;;10.00;99.90;;;;;;5138582;28;20183;-85
2021/05/18 02:13:00;;;;;;;0.63;0.63;;;10.00;99.90;;;;;;5138168;28;20222;-84
2021/05/18 02:15:37;;;;;;;0.70;0.70;;;10.00;99.90;;;;;;5137615;28;20192;-84
2021/05/18 02:18:19;;;;;;;1.25;0.80;;;10.00;99.90;;;;;;5138217;28;20204;-84
2021/05/18 02:20:49;;;;;;;0.80;0.80;;;10.00;99.90;;;;;;5138727;28;20202;-83
2021/05/18 02:26:00;;;;;;;1.85;0.90;;;10.00;99.90;;;;;;5138483;28;20427;-83
2021/05/18 02:28:28;;;;;;;0.90;0.90;;;10.00;99.90;;;;;;5138010;28;20200;-83
2021/05/18 02:30:55;;;;;;;1.38;0.80;;;10.00;99.90;;;;;;5137909;28;20200;-82
2021/05/18 02:33:21;;;;;;;0.90;0.90;;;10.10;99.90;;;;;;5138041;28;20263;-83
2021/05/18 02:35:48;;;;;;;2.47;1.10;;;10.00;99.90;;;;;;5137781;28;20201;-83
2021/05/18 02:38:14;;;;;;;1.20;0.90;;;10.00;99.90;;;;;;5137357;28;20192;-83
2021/05/18 02:40:42;;;;;;;0.85;0.85;;;9.90;99.90;;;;;;5135918;28;20224;-83
2021/05/18 02:43:13;;;;;;;1.40;1.00;;;10.00;99.90;;;;;;5129192;28;20233;-83
2021/05/18 02:45:44;;;;;;;1.40;1.30;;;9.90;99.90;;;;;;5123453;28;20184;-83
2021/05/18 02:50:55;;;;;;;1.10;1.00;;;10.00;99.90;;;;;;5120244;28;20236;-83
2021/05/18 02:53:22;;;;;;;1.23;1.13;;;10.00;99.90;;;;;;5120586;28;20726;-83
2021/05/18 02:55:56;;;;;;;1.33;1.23;;;10.00;99.90;;;;;;5120472;28;20205;-83
2021/05/18 02:58:25;;;;;;;8.60;1.45;;;10.00;99.90;;;;;;5120089;28;20218;-83
2021/05/18 03:00:51;;;;;;;1.40;1.30;;;10.00;99.90;;;;;;5120682;28;20588;-83
2021/05/18 03:03:17;;;;;;;1.27;1.17;;;10.10;99.90;;;;;;5119859;28;20212;-83
2021/05/18 03:05:44;;;;;;;1.70;1.60;;;10.10;99.90;;;;;;5120016;28;20235;-83
2021/05/18 03:08:10;;;;;;;2.08;1.20;;;10.10;99.90;;;;;;5120248;28;20446;-83
2021/05/18 03:10:37;;;;;;;1.00;0.80;;;10.20;99.90;;;;;;5120225;28;20204;-83
2021/05/18 03:13:04;;;;;;;1.95;0.90;;;10.20;99.90;;;;;;5120054;28;20442;-83
2021/05/18 03:15:32;;;;;;;1.83;1.00;;;10.20;99.90;;;;;;5119918;28;20216;-83
2021/05/18 03:17:58;;;;;;;1.23;0.80;;;10.20;99.90;;;;;;5119919;28;20213;-83
2021/05/18 03:20:26;;;;;;;1.70;1.60;;;10.30;99.90;;;;;;5120249;28;20215;-83
2021/05/18 03:22:53;;;;;;;1.40;1.30;;;10.30;99.90;;;;;;5119798;28;20212;-83
2021/05/18 03:25:20;;;;;;;1.10;1.10;;;10.30;99.90;;;;;;5119610;28;20225;-82
2021/05/18 03:27:47;;;;;;;1.10;1.00;;;10.30;99.90;;;;;;5119221;28;20206;-83
2021/05/18 03:30:24;;;;;;;1.10;1.00;;;10.30;99.90;;;;;;5119550;28;20207;-83
2021/05/18 03:35:37;;;;;;;4.15;0.98;;;10.20;99.90;;;;;;5119948;28;20434;-83
2021/05/18 03:38:08;;;;;;;1.40;0.93;;;10.20;99.90;;;;;;5119687;28;20212;-83
2021/05/18 03:40:36;;;;;;;1.20;1.08;;;10.20;99.90;;;;;;5119269;28;20223;-83
2021/05/18 03:43:09;;;;;;;0.70;0.70;;;10.20;99.90;;;;;;5119366;28;20205;-83
2021/05/18 03:45:38;;;;;;;1.37;0.87;;;10.20;99.90;;;;;;5119703;28;20495;-84
2021/05/18 03:53:44;;;;;;;0.88;0.88;;;10.10;99.90;;;;;;5119536;28;20220;-83
2021/05/18 03:59:01;;;;;;;0.93;0.85;;;10.00;99.90;;;;;;5119600;28;20199;-83
2021/05/18 04:04:17;;;;;;;1.20;1.10;;;9.90;99.90;;;;;;5122982;28;20734;-82
2021/05/18 04:12:42;;;;;;;0.50;0.50;;;9.70;99.90;;;;;;5124153;28;20214;-83
2021/05/18 04:17:59;;;;;;;0.77;0.77;;;9.80;99.90;;;;;;5123624;28;20634;-83
2021/05/18 04:20:36;;;;;;;0.98;0.90;;;9.90;99.90;;;;;;5123229;28;20209;-82
2021/05/18 04:23:17;;;;;;;1.10;1.10;;;9.90;99.90;;;;;;5123540;28;20201;-82
2021/05/18 04:40:03;;;;;;;0.67;0.67;;;10.10;99.90;;;;;;5124354;28;20673;-82
2021/05/18 04:50:55;;;;;;;1.10;1.00;;;10.30;99.90;;;;;;5123201;28;20263;-82
2021/05/18 04:53:28;;;;;;;0.98;0.90;;;10.30;99.90;;;;;;5122600;28;20318;-82
2021/05/18 05:01:47;;;;;;;0.80;0.80;;;10.30;99.90;;;;;;5059542;28;20345;-82
2021/05/18 05:06:09;;;;;;;0.70;0.70;;;10.30;99.90;;;;;;5060236;28;20511;-82
2021/05/18 05:07:07;;;;;;;1.00;0.90;;;10.30;99.90;;;;;;5102445;28;20616;-82
2021/05/18 05:09:37;;;;;;;0.80;0.80;;;10.30;99.90;;;;;;5122960;28;20257;-82
2021/05/18 05:14:49;;;;;;;0.80;0.77;;;10.30;99.90;;;;;;5122880;28;20446;-82
2021/05/18 05:17:16;;;;;;;1.13;1.02;;;10.40;99.90;;;;;;5122477;28;20212;-82
2021/05/18 05:19:42;;;;;;;0.90;0.90;;;10.40;99.90;;;;;;5122514;28;20210;-82
2021/05/18 05:22:08;;;;;;;1.58;1.48;;;10.50;99.90;;;;;;5122003;28;20236;-82
2021/05/18 05:24:37;;;;;;;2.03;1.10;;;10.40;99.90;;;;;;5122495;28;20271;-82
2021/05/18 05:27:04;;;;;;;1.30;1.20;;;10.50;99.90;;;;;;5122172;28;20211;-82
2021/05/18 05:29:30;;;;;;;1.30;1.00;;;10.50;99.90;;;;;;5122723;28;20488;-83
2021/05/18 05:31:56;;;;;;;1.38;0.85;;;10.50;99.90;;;;;;5124944;28;20447;-83
2021/05/18 05:34:23;;;;;;;0.97;0.80;;;10.50;99.90;;;;;;5127078;28;20235;-83
2021/05/18 05:36:49;;;;;;;0.75;0.75;;;10.50;99.90;;;;;;5129799;28;20501;-83
2021/05/18 05:39:22;;;;;;;0.95;0.90;;;10.50;99.90;;;;;;5129940;28;20205;-83
2021/05/18 05:41:51;;;;;;;0.98;0.88;;;10.50;99.90;;;;;;5124253;28;20227;-84
2021/05/18 05:44:17;;;;;;;1.23;0.90;;;10.50;99.90;;;;;;5124084;28;20221;-84
2021/05/18 05:46:43;;;;;;;1.10;1.00;;;10.50;99.90;;;;;;5123991;28;20293;-83
2021/05/18 05:49:10;;;;;;;1.20;1.20;;;10.50;99.90;;;;;;5123678;28;20486;-83
2021/05/18 05:51:36;;;;;;;3.33;1.17;;;10.50;99.90;;;;;;5123690;28;20447;-83
2021/05/18 05:54:04;;;;;;;1.30;1.20;;;10.50;99.90;;;;;;5123846;28;20463;-82
2021/05/18 05:56:31;;;;;;;2.17;1.17;;;10.50;99.90;;;;;;5123217;28;20461;-82
2021/05/18 05:59:00;;;;;;;2.70;1.20;;;10.50;99.90;;;;;;5124048;28;20457;-83
2021/05/18 06:01:28;;;;;;;1.58;1.48;;;10.50;99.90;;;;;;5126356;28;20470;-83
2021/05/18 06:03:55;;;;;;;1.50;1.40;;;10.50;99.90;;;;;;5125356;28;20229;-83
2021/05/18 06:06:21;;;;;;;2.67;1.90;;;10.60;99.90;;;;;;5122613;28;20460;-83
2021/05/18 06:08:48;;;;;;;2.90;1.60;;;10.60;99.90;;;;;;5122034;28;20205;-83
2021/05/18 06:11:17;;;;;;;1.47;1.30;;;10.60;99.90;;;;;;5122414;28;20466;-84
2021/05/18 06:41:29;;;;;;;2.00;1.20;;;10.70;99.90;;;;;;5120058;28;20188;-83
2021/05/18 06:46:57;;;;;;;2.70;1.80;;;11.00;99.90;;;;;;5037236;28;20443;-83
2021/05/18 06:49:25;;;;;;;1.83;1.70;;;11.10;99.90;;;;;;5101991;28;20484;-84
2021/05/18 06:51:54;;;;;;;7.60;2.43;;;11.40;99.90;;;;;;5120249;28;20456;-83
2021/05/18 06:54:21;;;;;;;1.30;1.20;;;11.50;99.90;;;;;;5123371;28;20500;-82
2021/05/18 06:56:52;;;;;;;0.97;0.87;;;11.70;99.90;;;;;;5121561;28;20514;-85
2021/05/18 07:02:08;;;;;;;1.03;0.90;;;11.70;99.90;;;;;;5102874;28;20514;-83
2021/05/18 07:04:38;;;;;;;1.30;1.20;;;11.70;99.90;;;;;;5118175;28;20475;-83
2021/05/18 07:07:15;;;;;;;1.33;0.80;;;11.80;99.90;;;;;;5120409;28;20459;-84
2021/05/18 07:09:41;;;;;;;1.90;1.80;;;11.90;99.90;;;;;;5098490;28;20989;-82
2021/05/18 07:12:09;;;;;;;1.00;0.87;;;12.00;99.90;;;;;;5120341;28;20525;-84
2021/05/18 07:18:33;;;;;;;1.13;0.97;;;12.20;99.90;;;;;;5012691;28;20454;-86
2021/05/18 07:31:19;;;;;;;1.37;1.13;;;12.90;99.90;;;;;;4850792;29;21322;-80
2021/05/18 07:59:35;;;;;;;0.80;0.80;;;13.10;99.90;;;;;;5049454;28;20424;-84
2021/05/18 08:02:23;;;;;;;1.00;0.90;;;12.80;99.90;;;;;;5100674;28;20448;-83
2021/05/18 08:07:35;;;;;;;0.90;0.90;;;12.60;99.90;;;;;;5109831;28;20967;-84
2021/05/18 08:10:08;;;;;;;1.37;1.23;;;12.60;99.90;;;;;;5109687;28;20874;-83
2021/05/18 08:12:36;;;;;;;1.23;1.10;;;12.50;99.90;;;;;;5106434;28;20493;-82
2021/05/18 08:15:17;;;;;;;0.80;0.80;;;12.50;99.90;;;;;;5107681;28;20477;-83
2021/05/18 08:17:48;;;;;;;1.47;1.17;;;12.40;99.90;;;;;;5107873;28;20464;-83
2021/05/18 08:20:47;;;;;;;1.30;1.20;;;12.20;99.90;;;;;;5108402;28;20543;-84
2021/05/18 09:47:57;;;;;;;0.77;0.77;;;14.10;99.90;;;;;;5083863;28;20442;-85
2021/05/18 10:35:48;;;;;;;2.10;1.30;;;11.60;99.90;;;;;;5086782;28;20469;-85
2021/05/18 10:38:19;;;;;;;2.33;1.80;;;11.90;99.90;;;;;;5085435;28;20435;-84
2021/05/18 10:40:51;;;;;;;3.20;1.30;;;12.20;99.90;;;;;;5085104;28;20449;-85
2021/05/18 10:43:21;;;;;;;3.53;1.50;;;12.60;99.90;;;;;;5084743;28;20457;-84
2021/05/18 10:46:28;;;;;;;1.10;1.00;;;12.90;99.90;;;;;;5083994;28;20438;-85
2021/05/18 10:48:59;;;;;;;0.53;0.53;;;13.00;99.90;;;;;;5083058;28;20520;-85
2021/05/18 10:51:51;;;;;;;1.90;0.80;;;13.10;99.90;;;;;;5083684;28;20498;-85
2021/05/18 10:54:21;;;;;;;1.23;0.83;;;13.00;99.90;;;;;;5081933;28;20914;-85
2021/05/18 10:57:15;;;;;;;6.60;1.27;;;13.10;99.90;;;;;;5085899;28;20451;-86
2021/05/18 10:59:45;;;;;;;1.80;1.00;;;13.50;99.90;;;;;;5086914;28;20443;-84
2021/05/18 11:16:43;;;;;;;1.23;0.67;;;15.90;99.60;;;;;;5124659;28;20491;-84
2021/05/18 11:19:30;;;;;;;1.23;0.80;;;15.60;98.00;;;;;;5125005;28;20448;-84
2021/05/18 11:22:03;;;;;;;0.93;0.80;;;15.20;95.70;;;;;;5122334;28;20459;-85
2021/05/18 11:25:11;;;;;;;;;;;;;;;;;;;;;
2021/05/18 11:27:54;;;;;;;2.77;2.37;;;15.00;97.30;;;;;;5122165;28;20528;-84
2021/05/18 11:36:04;;;;;;;1.23;1.00;;;15.40;98.40;;;;;;5824749;22;20476;-84
2021/05/18 11:38:33;;;;;;;0.60;0.60;;;16.10;98.80;;;;;;5102633;28;20528;-84
2021/05/18 11:41:01;;;;;;;1.40;0.67;;;16.40;94.30;;;;;;5102520;28;20536;-85
2021/05/18 11:47:06;;;;;;;;;;;;;;;;;;;;;
2021/05/18 13:39:38;;;;;;;;;;;;;;;;;;;;;
2021/05/18 13:59:01;;;;;;;1.07;0.70;;;18.20;98.90;;;;;;4890954;29;20488;-83
2021/05/18 14:22:23;;;;;;;1.00;0.80;;;15.50;99.90;;;;;;4888897;29;20441;-82
2021/05/18 14:31:58;;;;;;;0.83;0.50;;;16.50;99.40;;;;;;4955258;28;20560;-82
2021/05/18 14:34:46;;;;;;;;;;;;;;;;;;;;;
2021/05/18 14:37:34;;;;;;;1.83;1.10;;;16.90;94.90;;;;;;5042350;28;20539;-83
2021/05/18 14:40:05;;;;;;;0.80;0.70;;;16.80;96.70;;;;;;5040842;28;20535;-82
2021/05/18 14:42:51;;;;;;;1.10;0.40;;;16.80;96.70;;;;;;5042485;28;20481;-82
2021/05/18 14:45:21;;;;;;;1.07;0.80;;;16.70;95.70;;;;;;5086832;28;20491;-82
2021/05/18 14:47:54;;;;;;;0.83;0.83;;;16.80;96.00;;;;;;5102984;28;20451;-82
2021/05/18 14:55:50;;;;;;;0.90;0.87;;;17.00;93.30;;;;;;5105040;28;20467;-83
2021/05/18 14:58:17;;;;;;;0.70;0.50;;;17.00;94.70;;;;;;5104821;28;20479;-82
2021/05/18 15:00:43;;;;;;;0.80;0.80;;;17.10;94.20;;;;;;5104484;28;20494;-82
2021/05/18 15:03:10;;;;;;;0.90;0.37;;;17.10;95.20;;;;;;5105518;28;20462;-81
2021/05/18 15:05:36;;;;;;;0.93;0.93;;;17.20;94.70;;;;;;5104440;28;20471;-82
2021/05/18 15:08:03;;;;;;;0.60;0.43;;;17.30;94.20;;;;;;5104226;28;20448;-81
2021/05/18 15:10:30;;;;;;;0.73;0.70;;;17.30;93.70;;;;;;5105892;28;20773;-83
2021/05/18 15:12:56;;;;;;;0.40;0.40;;;17.20;93.10;;;;;;5104759;28;20460;-83
2021/05/18 15:15:23;;;;;;;3.07;0.80;;;17.20;94.50;;;;;;5105018;28;20463;-84
2021/05/18 15:17:50;;;;;;;1.37;0.60;;;17.20;94.90;;;;;;5107112;28;20461;-82
2021/05/18 15:20:17;;;;;;;0.93;0.60;;;17.20;94.20;;;;;;5107053;28;20511;-82
2021/05/18 15:22:43;;;;;;;0.50;0.50;;;17.50;93.30;;;;;;5105376;28;20536;-81
2021/05/18 15:25:11;;;;;;;2.30;0.60;;;18.10;94.70;;;;;;5106525;28;20473;-81
2021/05/18 15:27:38;;;;;;;0.90;0.70;;;19.20;93.00;;;;;;5105966;28;20451;-82
2021/05/18 15:30:05;;;;;;;1.23;0.50;;;20.50;91.10;;;;;;5105877;28;20444;-82
2021/05/18 15:32:32;;;;;;;0.60;0.60;;;21.40;84.40;;;;;;5105798;28;20453;-82
2021/05/18 15:34:58;;;;;;;0.60;0.60;;;22.00;84.20;;;;;;5105763;28;20956;-83
2021/05/18 15:37:24;;;;;;;0.77;0.70;;;22.40;79.80;;;;;;5107242;28;20446;-83
2021/05/18 15:39:51;;;;;;;1.50;0.60;;;22.90;78.00;;;;;;5106231;28;20453;-83
2021/05/18 15:42:17;;;;;;;1.97;0.57;;;23.10;74.30;;;;;;5105452;28;20449;-83
2021/05/18 15:44:44;;;;;;;2.23;0.70;;;23.40;73.20;;;;;;5105853;28;20471;-83
2021/05/18 15:47:10;;;;;;;0.70;0.60;;;23.50;75.10;;;;;;5104387;28;20451;-84
2021/05/18 15:49:37;;;;;;;1.93;0.57;;;23.60;70.10;;;;;;5103823;28;20864;-83
2021/05/18 15:52:04;;;;;;;0.70;0.50;;;23.50;70.50;;;;;;5104656;28;20454;-84
2021/05/18 15:54:30;;;;;;;0.80;0.60;;;23.50;70.30;;;;;;5105188;28;20498;-84
2021/05/18 15:56:56;;;;;;;1.70;0.70;;;22.90;67.30;;;;;;5104704;28;20454;-84
2021/05/18 15:59:23;;;;;;;0.83;0.63;;;22.90;68.50;;;;;;5106346;28;20457;-85
2021/05/18 16:01:50;;;;;;;1.20;0.70;;;22.90;71.50;;;;;;5107602;28;21059;-85
2021/05/18 16:04:19;;;;;;;0.70;0.53;;;22.70;67.50;;;;;;5106809;28;20473;-84
2021/05/18 16:06:45;;;;;;;0.80;0.80;;;22.40;68.20;;;;;;5110934;28;20504;-84
2021/05/18 16:09:13;;;;;;;1.30;0.47;;;21.60;66.50;;;;;;5110008;28;20454;-85
2021/05/18 16:11:39;;;;;;;0.83;0.70;;;20.90;69.40;;;;;;5109886;28;20456;-83
2021/05/18 16:14:06;;;;;;;0.97;0.90;;;20.30;70.50;;;;;;5112785;28;20529;-82
2021/05/18 16:16:34;;;;;;;1.43;0.90;;;19.90;73.00;;;;;;5111323;28;20450;-83
2021/05/18 16:19:01;;;;;;;2.00;0.90;;;19.60;74.20;;;;;;5116259;28;20459;-83
2021/05/18 16:21:28;;;;;;;0.77;0.77;;;19.30;75.40;;;;;;5122694;28;20485;-83
2021/05/18 16:23:55;;;;;;;1.90;1.00;;;19.00;74.80;;;;;;5105907;28;20462;-83
2021/05/18 16:26:24;;;;;;;1.60;0.60;;;18.60;76.70;;;;;;5124334;28;20456;-84
2021/05/18 16:28:51;;;;;;;0.50;0.40;;;18.60;77.40;;;;;;5129452;28;20438;-81
2021/05/18 16:31:18;;;;;;;1.10;0.70;;;17.90;77.70;;;;;;5128602;28;20441;-84
2021/05/18 16:33:44;;;;;;;0.80;0.80;;;17.10;80.10;;;;;;5127432;28;20469;-82
2021/05/18 16:36:13;;;;;;;1.67;0.70;;;16.90;80.90;;;;;;5129379;28;20478;-83
2021/05/18 16:38:40;;;;;;;1.63;1.47;;;16.60;81.90;;;;;;5128794;28;20509;-83
2021/05/18 16:41:07;;;;;;;0.87;0.60;;;16.40;84.40;;;;;;5129154;28;20809;-83
2021/05/18 16:43:33;;;;;;;0.80;0.67;;;16.00;85.00;;;;;;5128606;28;20464;-83
2021/05/18 16:46:04;;;;;;;1.33;1.07;;;16.00;86.20;;;;;;5129469;28;20446;-83
2021/05/18 16:48:31;;;;;;;0.70;0.60;;;15.70;87.30;;;;;;5129597;28;20564;-83
2021/05/18 16:50:59;;;;;;;1.13;0.70;;;15.70;88.80;;;;;;5128254;28;20471;-83
2021/05/18 16:53:27;;;;;;;1.33;0.80;;;15.50;90.40;;;;;;5128908;28;20534;-83
2021/05/18 16:55:54;;;;;;;8.40;2.93;;;15.30;91.10;;;;;;5128155;28;20472;-83
2021/05/18 16:58:20;;;;;;;1.80;0.80;;;15.30;91.30;;;;;;5128671;28;20449;-83
2021/05/18 17:00:47;;;;;;;0.93;0.83;;;14.90;92.00;;;;;;5127957;28;20485;-82
2021/05/18 17:03:13;;;;;;;1.00;0.70;;;14.60;93.40;;;;;;5128705;28;20434;-82
2021/05/18 17:05:39;;;;;;;1.20;0.97;;;14.60;95.10;;;;;;5130249;28;20451;-82
2021/05/18 17:08:06;;;;;;;1.10;1.00;;;14.40;96.90;;;;;;5129070;28;20471;-84
2021/05/18 17:10:35;;;;;;;1.73;0.97;;;14.30;97.80;;;;;;5122843;28;20982;-84
2021/05/18 17:13:02;;;;;;;2.40;0.80;;;14.10;98.30;;;;;;5123843;28;20449;-82
2021/05/18 17:15:29;;;;;;;3.17;1.03;;;13.80;98.20;;;;;;5123304;28;20445;-83
2021/05/18 17:17:56;;;;;;;0.93;0.70;;;13.70;98.00;;;;;;5123543;28;20472;-82
2021/05/18 17:20:23;;;;;;;1.10;0.67;;;13.60;97.00;;;;;;5123500;28;20489;-83
2021/05/18 17:22:50;;;;;;;1.60;0.77;;;13.50;96.70;;;;;;5110268;28;20500;-82
2021/05/18 17:25:17;;;;;;;1.37;0.60;;;13.30;97.30;;;;;;5094572;28;20458;-83
2021/05/18 17:27:44;;;;;;;4.23;0.90;;;12.70;98.10;;;;;;5092104;28;20438;-83
2021/05/18 17:30:13;;;;;;;0.50;0.50;;;12.40;98.80;;;;;;5100463;28;20487;-83
2021/05/18 17:32:39;;;;;;;0.77;0.77;;;12.00;99.90;;;;;;5089256;28;20812;-83
2021/05/18 17:35:07;;;;;;;0.60;0.60;;;11.70;99.90;;;;;;5111274;28;20226;-83
2021/05/18 17:37:34;;;;;;;0.80;0.80;;;11.50;99.90;;;;;;5112742;28;20440;-81
2021/05/18 17:40:03;;;;;;;0.70;0.60;;;11.40;99.90;;;;;;5111789;28;20448;-83
2021/05/18 17:42:29;;;;;;;0.60;0.60;;;11.30;99.90;;;;;;5111851;28;20197;-83
2021/05/18 17:45:01;;;;;;;0.70;0.70;;;11.10;99.90;;;;;;5109725;28;20989;-81
2021/05/18 17:47:27;;;;;;;1.60;0.50;;;11.00;99.90;;;;;;5109967;28;20459;-83
2021/05/18 17:49:54;;;;;;;0.93;0.77;;;11.00;99.90;;;;;;5110527;28;20448;-81
2021/05/18 17:52:20;;;;;;;0.60;0.53;;;10.90;99.90;;;;;;5102610;28;20441;-83
2021/05/18 17:54:47;;;;;;;0.70;0.70;;;10.80;99.90;;;;;;5101948;28;20465;-83
2021/05/18 17:57:13;;;;;;;1.55;0.93;;;10.70;99.90;;;;;;5101369;28;21062;-83
2021/05/18 17:59:40;;;;;;;1.80;1.07;;;10.60;99.90;;;;;;5100381;28;20215;-81
2021/05/18 18:02:07;;;;;;;1.27;0.97;;;10.60;99.90;;;;;;5100320;28;20477;-82
2021/05/18 18:04:34;;;;;;;1.15;0.50;;;10.40;99.90;;;;;;5100596;28;20479;-81
2021/05/18 18:07:01;;;;;;;0.93;0.77;;;10.30;99.90;;;;;;5099997;28;20210;-82
2021/05/18 18:09:28;;;;;;;0.80;0.80;;;10.30;99.90;;;;;;5100212;28;20210;-83
2021/05/18 18:11:54;;;;;;;0.60;0.60;;;10.30;99.90;;;;;;5100695;28;20216;-82
2021/05/18 18:14:20;;;;;;;0.63;0.63;;;10.30;99.90;;;;;;5100384;28;20224;-82
2021/05/18 18:16:47;;;;;;;1.77;0.95;;;10.20;99.90;;;;;;5110539;28;20216;-83
2021/05/18 18:19:16;;;;;;;1.23;1.00;;;10.10;99.90;;;;;;5112394;28;20193;-81
2021/05/18 18:21:42;;;;;;;0.70;0.70;;;9.90;99.90;;;;;;5125770;28;20231;-81
2021/05/18 18:24:09;;;;;;;1.35;1.25;;;9.90;99.90;;;;;;5125895;28;20209;-82
2021/05/18 18:26:36;;;;;;;2.35;2.22;;;10.00;99.90;;;;;;5126411;28;20245;-81
2021/05/18 18:29:04;;;;;;;1.98;1.70;;;10.10;99.90;;;;;;5110890;28;20201;-82
2021/05/18 18:31:30;;;;;;;1.08;1.08;;;10.10;99.90;;;;;;5110461;28;20286;-83
2021/05/18 18:33:57;;;;;;;1.33;1.23;;;10.00;99.90;;;;;;5106865;28;20222;-82
2021/05/18 18:36:26;;;;;;;1.40;1.20;;;10.10;99.90;;;;;;5109306;28;20794;-84
2021/05/18 18:38:52;;;;;;;1.30;1.20;;;10.10;99.90;;;;;;5102268;28;20210;-82
2021/05/18 18:41:19;;;;;;;0.90;0.90;;;10.10;99.90;;;;;;5102555;28;20259;-81
2021/05/18 18:43:45;;;;;;;0.95;0.95;;;10.20;99.90;;;;;;5101319;28;20248;-84
2021/05/18 18:46:12;;;;;;;1.23;1.10;;;10.20;99.90;;;;;;5100524;28;20237;-83
2021/05/18 18:48:38;;;;;;;1.47;0.80;;;10.10;99.90;;;;;;5099893;28;20301;-84
2021/05/18 18:51:09;;;;;;;2.20;1.42;;;10.20;99.90;;;;;;5099225;28;20966;-82
2021/05/18 18:53:43;;;;;;;0.70;0.70;;;10.10;99.90;;;;;;5098805;28;20260;-84
2021/05/18 18:56:10;;;;;;;1.20;1.10;;;10.10;99.90;;;;;;5099525;28;20209;-84
2021/05/18 18:58:37;;;;;;;1.00;0.90;;;10.10;99.90;;;;;;5101307;28;20211;-83
2021/05/18 19:01:04;;;;;;;1.65;1.40;;;10.10;99.90;;;;;;5101037;28;20224;-84
2021/05/18 19:03:32;;;;;;;0.80;0.80;;;10.10;99.90;;;;;;5100746;28;20279;-84
2021/05/18 19:06:11;;;;;;;1.13;1.02;;;10.10;99.90;;;;;;5101496;28;20213;-84
2021/05/18 19:14:19;;;;;;;1.45;1.35;;;10.20;99.90;;;;;;5097039;28;20220;-82
2021/05/18 19:16:46;;;;;;;1.33;1.23;;;10.20;99.90;;;;;;5094016;28;20248;-83
2021/05/18 19:19:18;;;;;;;1.85;1.10;;;10.20;99.90;;;;;;5099743;28;20927;-83
2021/05/18 19:25:26;;;;;;;2.20;2.00;;;10.20;99.90;;;;;;5097292;28;20262;-84
2021/05/18 19:28:32;;;;;;;1.73;1.55;;;10.20;99.90;;;;;;5095715;28;20209;-82
2021/05/18 19:31:39;;;;;;;1.75;1.65;;;10.30;99.90;;;;;;5082495;28;20207;-83
2021/05/18 19:34:18;;;;;;;2.13;1.92;;;10.10;99.90;;;;;;4994704;28;20233;-83
2021/05/18 19:45:12;;;;;;;1.50;1.00;;;10.00;99.90;;;;;;5107107;28;20537;-83
2021/05/18 19:50:27;;;;;;;0.93;0.93;;;10.10;99.90;;;;;;5113547;28;20636;-83
2021/05/18 19:53:01;;;;;;;2.15;1.20;;;10.10;99.90;;;;;;5108847;28;20648;-83
2021/05/18 19:55:31;;;;;;;0.70;0.70;;;10.10;99.90;;;;;;5107679;28;20242;-83
2021/05/18 19:58:02;;;;;;;2.10;0.90;;;10.20;99.90;;;;;;5108689;28;20209;-83
2021/05/18 20:19:56;;;;;;;1.05;1.05;;;10.20;99.90;;;;;;5100290;28;20233;-83
2021/05/18 20:22:23;;;;;;;3.63;1.40;;;10.20;99.90;;;;;;5100375;28;20251;-82
2021/05/18 20:24:50;;;;;;;1.52;1.40;;;10.20;99.90;;;;;;5101292;28;20229;-82
2021/05/18 20:27:18;;;;;;;1.52;1.42;;;10.20;99.90;;;;;;5101151;28;20303;-83
2021/05/18 20:29:47;;;;;;;2.08;1.77;;;10.20;99.90;;;;;;5100779;28;20218;-83
2021/05/18 20:32:14;;;;;;;2.20;1.70;;;10.20;99.90;;;;;;5100634;28;20203;-83
2021/05/18 20:34:57;;;;;;;1.88;1.77;;;10.20;99.90;;;;;;5100627;28;20232;-83
2021/05/18 20:40:10;;;;;;;1.73;1.60;;;10.10;99.90;;;;;;5100877;28;20212;-84
2021/05/18 20:42:37;;;;;;;2.13;1.90;;;10.10;99.90;;;;;;5100566;28;20211;-84
2021/05/18 20:45:07;;;;;;;3.30;2.20;;;10.10;99.90;;;;;;5101600;28;20831;-84
2021/05/18 20:47:34;;;;;;;2.22;1.83;;;10.00;99.90;;;;;;5105134;28;20205;-84
2021/05/18 20:50:03;;;;;;;2.10;1.90;;;9.90;99.90;;;;;;5105000;28;20205;-84
2021/05/18 20:52:29;;;;;;;3.03;2.83;;;9.90;99.90;;;;;;5104690;28;20205;-84
2021/05/18 20:54:55;;;;;;;5.60;4.05;;;9.90;99.90;;;;;;5105537;28;20565;-84
2021/05/18 20:57:22;;;;;;;3.15;2.83;;;9.90;99.90;;;;;;5105171;28;20700;-84
2021/05/18 20:59:48;;;;;;;3.75;3.38;;;9.80;99.90;;;;;;5104057;28;20216;-82
2021/05/18 21:02:15;;;;;;;3.55;3.00;;;9.90;99.90;;;;;;5103117;28;20228;-83
2021/05/18 21:04:44;;;;;;;3.25;2.50;;;9.90;99.90;;;;;;5104616;28;20283;-83
2021/05/18 21:07:18;;;;;;;3.78;2.50;;;9.80;99.90;;;;;;5103519;28;20205;-83
2021/05/18 21:09:53;;;;;;;2.63;2.42;;;9.80;99.90;;;;;;5102845;28;20331;-82
2021/05/18 21:12:26;;;;;;;2.80;2.60;;;9.80;99.90;;;;;;5103464;28;20188;-83
2021/05/18 21:17:38;;;;;;;3.28;2.97;;;9.90;99.90;;;;;;5103036;28;20561;-83
2021/05/18 21:20:05;;;;;;;4.38;3.30;;;9.90;99.90;;;;;;5102744;28;20210;-82
2021/05/18 21:22:31;;;;;;;2.63;2.42;;;10.00;99.90;;;;;;5102873;28;20229;-82
2021/05/18 21:24:59;;;;;;;3.58;3.28;;;10.00;99.90;;;;;;5105034;28;20719;-82
2021/05/18 21:27:25;;;;;;;2.40;2.30;;;10.00;99.90;;;;;;5103979;28;20211;-81